sensor_id;sensor_type;location;lat;lon;timestamp;P1;durP1;ratioP1;P2;durP2;ratioP2
17858;SDS011;35426;30.698;104.050;2023-05-10T00:02:24;26.20;;;14.30;;
17858;SDS011;35426;30.698;104.050;2023-05-10T00:05:04;26.97;;;13.43;;
17858;SDS011;35426;30.698;104.050;2023-05-10T00:07:41;22.43;;;13.37;;
17858;SDS011;35426;30.698;104.050;2023-05-10T00:10:16;22.57;;;13.77;;
17858;SDS011;35426;30.698;104.050;2023-05-10T00:12:53;25.20;;;14.30;;
17858;SDS011;35426;30.698;104.050;2023-05-10T00:15:28;21.47;;;13.13;;
17858;SDS011;35426;30.698;104.050;2023-05-10T00:18:04;24.97;;;13.17;;
17858;SDS011;35426;30.698;104.050;2023-05-10T00:20:40;25.97;;;12.87;;
17858;SDS011;35426;30.698;104.050;2023-05-10T00:23:19;23.40;;;13.03;;
17858;SDS011;35426;30.698;104.050;2023-05-10T00:25:53;25.73;;;12.87;;
17858;SDS011;35426;30.698;104.050;2023-05-10T00:28:30;27.27;;;12.67;;
17858;SDS011;35426;30.698;104.050;2023-05-10T00:31:08;22.40;;;12.50;;
17858;SDS011;35426;30.698;104.050;2023-05-10T00:33:45;27.90;;;14.13;;
17858;SDS011;35426;30.698;104.050;2023-05-10T00:36:20;24.13;;;13.00;;
17858;SDS011;35426;30.698;104.050;2023-05-10T00:38:56;26.17;;;12.33;;
17858;SDS011;35426;30.698;104.050;2023-05-10T00:41:34;23.17;;;12.40;;
17858;SDS011;35426;30.698;104.050;2023-05-10T00:44:12;19.43;;;11.73;;
17858;SDS011;35426;30.698;104.050;2023-05-10T00:46:51;18.67;;;12.03;;
17858;SDS011;35426;30.698;104.050;2023-05-10T00:49:28;20.37;;;12.43;;
17858;SDS011;35426;30.698;104.050;2023-05-10T00:52:10;21.70;;;11.90;;
17858;SDS011;35426;30.698;104.050;2023-05-10T00:54:45;17.43;;;11.50;;
17858;SDS011;35426;30.698;104.050;2023-05-10T00:57:19;20.90;;;12.10;;
17858;SDS011;35426;30.698;104.050;2023-05-10T01:00:04;20.77;;;11.90;;
17858;SDS011;35426;30.698;104.050;2023-05-10T01:02:41;14.57;;;8.87;;
17858;SDS011;35426;30.698;104.050;2023-05-10T01:05:15;13.20;;;9.00;;
17858;SDS011;35426;30.698;104.050;2023-05-10T01:07:54;14.97;;;9.30;;
17858;SDS011;35426;30.698;104.050;2023-05-10T01:10:33;5.23;;;3.67;;
17858;SDS011;35426;30.698;104.050;2023-05-10T01:13:08;7.33;;;3.83;;
17858;SDS011;35426;30.698;104.050;2023-05-10T01:15:43;6.00;;;4.50;;
17858;SDS011;35426;30.698;104.050;2023-05-10T01:18:26;8.37;;;5.50;;
17858;SDS011;35426;30.698;104.050;2023-05-10T01:21:07;8.20;;;5.50;;
17858;SDS011;35426;30.698;104.050;2023-05-10T01:24:02;10.30;;;6.20;;
17858;SDS011;35426;30.698;104.050;2023-05-10T01:33:46;13.10;;;6.77;;
17858;SDS011;35426;30.698;104.050;2023-05-10T01:36:29;8.53;;;5.77;;
17858;SDS011;35426;30.698;104.050;2023-05-10T01:39:11;13.53;;;6.47;;
17858;SDS011;35426;30.698;104.050;2023-05-10T01:41:55;10.27;;;6.10;;
17858;SDS011;35426;30.698;104.050;2023-05-10T01:44:42;7.07;;;3.80;;
17858;SDS011;35426;30.698;104.050;2023-05-10T01:47:24;6.00;;;3.97;;
17858;SDS011;35426;30.698;104.050;2023-05-10T01:50:10;6.17;;;4.80;;
17858;SDS011;35426;30.698;104.050;2023-05-10T01:52:53;9.77;;;5.50;;
17858;SDS011;35426;30.698;104.050;2023-05-10T01:55:32;8.17;;;5.03;;
17858;SDS011;35426;30.698;104.050;2023-05-10T01:58:11;7.03;;;4.77;;
17858;SDS011;35426;30.698;104.050;2023-05-10T02:00:50;5.10;;;3.83;;
17858;SDS011;35426;30.698;104.050;2023-05-10T02:03:26;9.10;;;4.77;;
17858;SDS011;35426;30.698;104.050;2023-05-10T02:06:07;8.17;;;4.40;;
17858;SDS011;35426;30.698;104.050;2023-05-10T02:08:44;6.67;;;3.90;;
17858;SDS011;35426;30.698;104.050;2023-05-10T02:11:22;9.13;;;4.30;;
17858;SDS011;35426;30.698;104.050;2023-05-10T02:13:57;9.00;;;4.50;;
17858;SDS011;35426;30.698;104.050;2023-05-10T02:16:41;6.47;;;4.10;;
17858;SDS011;35426;30.698;104.050;2023-05-10T02:19:20;5.07;;;3.97;;
17858;SDS011;35426;30.698;104.050;2023-05-10T02:21:59;5.40;;;3.53;;
17858;SDS011;35426;30.698;104.050;2023-05-10T02:24:36;8.83;;;3.80;;
17858;SDS011;35426;30.698;104.050;2023-05-10T02:27:12;5.47;;;3.60;;
17858;SDS011;35426;30.698;104.050;2023-05-10T02:29:50;5.33;;;3.80;;
17858;SDS011;35426;30.698;104.050;2023-05-10T02:32:26;4.70;;;3.57;;
17858;SDS011;35426;30.698;104.050;2023-05-10T02:35:06;4.83;;;3.70;;
17858;SDS011;35426;30.698;104.050;2023-05-10T02:37:48;6.23;;;4.17;;
17858;SDS011;35426;30.698;104.050;2023-05-10T02:40:23;9.43;;;4.07;;
17858;SDS011;35426;30.698;104.050;2023-05-10T02:43:01;5.83;;;4.23;;
17858;SDS011;35426;30.698;104.050;2023-05-10T02:45:40;7.53;;;4.70;;
17858;SDS011;35426;30.698;104.050;2023-05-10T02:48:23;5.73;;;4.33;;
17858;SDS011;35426;30.698;104.050;2023-05-10T02:51:02;7.60;;;3.93;;
17858;SDS011;35426;30.698;104.050;2023-05-10T02:53:45;5.40;;;4.33;;
17858;SDS011;35426;30.698;104.050;2023-05-10T02:56:23;11.13;;;5.17;;
17858;SDS011;35426;30.698;104.050;2023-05-10T02:59:01;6.87;;;4.57;;
17858;SDS011;35426;30.698;104.050;2023-05-10T03:01:38;7.57;;;4.90;;
17858;SDS011;35426;30.698;104.050;2023-05-10T03:04:14;9.40;;;4.70;;
17858;SDS011;35426;30.698;104.050;2023-05-10T03:06:54;6.67;;;4.67;;
17858;SDS011;35426;30.698;104.050;2023-05-10T03:09:39;9.73;;;5.20;;
17858;SDS011;35426;30.698;104.050;2023-05-10T03:12:15;6.83;;;4.90;;
17858;SDS011;35426;30.698;104.050;2023-05-10T03:15:04;6.93;;;4.83;;
17858;SDS011;35426;30.698;104.050;2023-05-10T03:17:45;7.43;;;4.97;;
17858;SDS011;35426;30.698;104.050;2023-05-10T03:20:29;8.77;;;5.00;;
17858;SDS011;35426;30.698;104.050;2023-05-10T03:23:11;8.23;;;5.87;;
17858;SDS011;35426;30.698;104.050;2023-05-10T03:25:59;11.20;;;6.17;;
17858;SDS011;35426;30.698;104.050;2023-05-10T03:28:40;10.73;;;6.33;;
17858;SDS011;35426;30.698;104.050;2023-05-10T03:31:17;8.43;;;5.60;;
17858;SDS011;35426;30.698;104.050;2023-05-10T03:33:53;10.60;;;5.93;;
17858;SDS011;35426;30.698;104.050;2023-05-10T03:36:28;7.10;;;5.60;;
17858;SDS011;35426;30.698;104.050;2023-05-10T03:39:06;9.50;;;5.60;;
17858;SDS011;35426;30.698;104.050;2023-05-10T03:41:42;11.43;;;6.10;;
17858;SDS011;35426;30.698;104.050;2023-05-10T03:44:17;10.43;;;5.70;;
17858;SDS011;35426;30.698;104.050;2023-05-10T03:46:51;12.93;;;6.80;;
17858;SDS011;35426;30.698;104.050;2023-05-10T03:49:26;11.77;;;6.00;;
17858;SDS011;35426;30.698;104.050;2023-05-10T03:52:03;10.60;;;6.17;;
17858;SDS011;35426;30.698;104.050;2023-05-10T03:54:40;9.47;;;6.90;;
17858;SDS011;35426;30.698;104.050;2023-05-10T03:57:17;12.23;;;6.30;;
17858;SDS011;35426;30.698;104.050;2023-05-10T03:59:53;13.47;;;6.53;;
17858;SDS011;35426;30.698;104.050;2023-05-10T04:02:40;11.60;;;6.30;;
17858;SDS011;35426;30.698;104.050;2023-05-10T04:05:18;8.90;;;5.67;;
17858;SDS011;35426;30.698;104.050;2023-05-10T04:08:07;9.73;;;6.20;;
17858;SDS011;35426;30.698;104.050;2023-05-10T04:10:41;10.67;;;5.77;;
17858;SDS011;35426;30.698;104.050;2023-05-10T04:13:29;7.63;;;5.20;;
17858;SDS011;35426;30.698;104.050;2023-05-10T04:16:29;7.67;;;5.23;;
17858;SDS011;35426;30.698;104.050;2023-05-10T04:19:14;8.10;;;5.50;;
17858;SDS011;35426;30.698;104.050;2023-05-10T04:21:54;6.87;;;5.20;;
17858;SDS011;35426;30.698;104.050;2023-05-10T04:24:28;9.33;;;5.23;;
17858;SDS011;35426;30.698;104.050;2023-05-10T04:27:14;10.37;;;5.47;;
17858;SDS011;35426;30.698;104.050;2023-05-10T04:29:51;8.03;;;5.30;;
17858;SDS011;35426;30.698;104.050;2023-05-10T04:32:28;9.63;;;5.10;;
17858;SDS011;35426;30.698;104.050;2023-05-10T04:35:03;7.77;;;5.23;;
17858;SDS011;35426;30.698;104.050;2023-05-10T04:37:44;12.73;;;5.60;;
17858;SDS011;35426;30.698;104.050;2023-05-10T04:40:35;8.00;;;4.60;;
17858;SDS011;35426;30.698;104.050;2023-05-10T04:43:16;12.37;;;5.03;;
17858;SDS011;35426;30.698;104.050;2023-05-10T04:45:58;8.60;;;4.53;;
17858;SDS011;35426;30.698;104.050;2023-05-10T04:48:40;7.67;;;3.90;;
17858;SDS011;35426;30.698;104.050;2023-05-10T04:51:20;12.80;;;4.20;;
17858;SDS011;35426;30.698;104.050;2023-05-10T04:53:55;6.57;;;4.37;;
17858;SDS011;35426;30.698;104.050;2023-05-10T04:56:34;7.93;;;4.50;;
17858;SDS011;35426;30.698;104.050;2023-05-10T04:59:13;6.97;;;4.27;;
17858;SDS011;35426;30.698;104.050;2023-05-10T05:02:04;7.00;;;3.90;;
17858;SDS011;35426;30.698;104.050;2023-05-10T05:04:40;9.33;;;4.30;;
17858;SDS011;35426;30.698;104.050;2023-05-10T05:07:14;6.87;;;4.90;;
17858;SDS011;35426;30.698;104.050;2023-05-10T05:09:49;5.53;;;4.30;;
17858;SDS011;35426;30.698;104.050;2023-05-10T05:12:27;8.27;;;5.00;;
17858;SDS011;35426;30.698;104.050;2023-05-10T05:15:04;7.17;;;4.30;;
17858;SDS011;35426;30.698;104.050;2023-05-10T05:17:52;8.30;;;4.70;;
17858;SDS011;35426;30.698;104.050;2023-05-10T05:20:31;7.97;;;5.23;;
17858;SDS011;35426;30.698;104.050;2023-05-10T05:23:12;8.33;;;4.63;;
17858;SDS011;35426;30.698;104.050;2023-05-10T05:25:49;9.73;;;4.60;;
17858;SDS011;35426;30.698;104.050;2023-05-10T05:28:26;8.13;;;4.43;;
17858;SDS011;35426;30.698;104.050;2023-05-10T05:31:09;5.93;;;4.80;;
17858;SDS011;35426;30.698;104.050;2023-05-10T05:33:48;7.17;;;5.00;;
17858;SDS011;35426;30.698;104.050;2023-05-10T05:36:22;8.43;;;4.67;;
17858;SDS011;35426;30.698;104.050;2023-05-10T05:39:01;12.30;;;4.53;;
17858;SDS011;35426;30.698;104.050;2023-05-10T05:41:42;9.53;;;5.07;;
17858;SDS011;35426;30.698;104.050;2023-05-10T05:44:17;7.00;;;4.50;;
17858;SDS011;35426;30.698;104.050;2023-05-10T05:46:52;7.40;;;4.00;;
17858;SDS011;35426;30.698;104.050;2023-05-10T05:49:33;7.10;;;4.40;;
17858;SDS011;35426;30.698;104.050;2023-05-10T05:52:06;6.23;;;4.80;;
17858;SDS011;35426;30.698;104.050;2023-05-10T05:54:41;7.10;;;4.40;;
17858;SDS011;35426;30.698;104.050;2023-05-10T05:57:19;5.80;;;4.20;;
17858;SDS011;35426;30.698;104.050;2023-05-10T06:00:06;9.43;;;3.83;;
17858;SDS011;35426;30.698;104.050;2023-05-10T06:02:46;6.97;;;5.00;;
17858;SDS011;35426;30.698;104.050;2023-05-10T06:05:25;6.50;;;4.70;;
17858;SDS011;35426;30.698;104.050;2023-05-10T06:08:00;6.33;;;4.33;;
17858;SDS011;35426;30.698;104.050;2023-05-10T06:10:38;6.87;;;4.37;;
17858;SDS011;35426;30.698;104.050;2023-05-10T06:13:16;6.80;;;4.10;;
17858;SDS011;35426;30.698;104.050;2023-05-10T06:15:51;5.47;;;3.80;;
17858;SDS011;35426;30.698;104.050;2023-05-10T06:18:26;8.03;;;4.07;;
17858;SDS011;35426;30.698;104.050;2023-05-10T06:21:06;6.60;;;4.23;;
17858;SDS011;35426;30.698;104.050;2023-05-10T06:23:41;10.00;;;4.33;;
17858;SDS011;35426;30.698;104.050;2023-05-10T06:26:16;6.63;;;4.50;;
17858;SDS011;35426;30.698;104.050;2023-05-10T06:28:52;10.27;;;4.83;;
17858;SDS011;35426;30.698;104.050;2023-05-10T06:31:28;7.00;;;4.97;;
17858;SDS011;35426;30.698;104.050;2023-05-10T06:34:02;7.03;;;4.80;;
17858;SDS011;35426;30.698;104.050;2023-05-10T06:36:48;8.60;;;4.50;;
17858;SDS011;35426;30.698;104.050;2023-05-10T06:39:22;10.20;;;4.57;;
17858;SDS011;35426;30.698;104.050;2023-05-10T06:41:57;6.53;;;4.13;;
17858;SDS011;35426;30.698;104.050;2023-05-10T06:44:35;8.47;;;4.07;;
17858;SDS011;35426;30.698;104.050;2023-05-10T06:47:08;7.07;;;4.10;;
17858;SDS011;35426;30.698;104.050;2023-05-10T06:49:50;9.23;;;4.00;;
17858;SDS011;35426;30.698;104.050;2023-05-10T06:52:26;8.47;;;4.07;;
17858;SDS011;35426;30.698;104.050;2023-05-10T06:55:00;4.83;;;3.70;;
17858;SDS011;35426;30.698;104.050;2023-05-10T06:57:34;5.60;;;4.23;;
17858;SDS011;35426;30.698;104.050;2023-05-10T07:00:15;9.53;;;4.00;;
17858;SDS011;35426;30.698;104.050;2023-05-10T07:02:50;8.73;;;4.00;;
17858;SDS011;35426;30.698;104.050;2023-05-10T07:05:28;6.13;;;4.13;;
17858;SDS011;35426;30.698;104.050;2023-05-10T07:08:05;6.40;;;4.30;;
17858;SDS011;35426;30.698;104.050;2023-05-10T07:10:42;7.57;;;4.20;;
17858;SDS011;35426;30.698;104.050;2023-05-10T07:13:17;10.10;;;4.27;;
17858;SDS011;35426;30.698;104.050;2023-05-10T07:15:54;5.03;;;3.93;;
17858;SDS011;35426;30.698;104.050;2023-05-10T07:18:34;6.07;;;3.73;;
17858;SDS011;35426;30.698;104.050;2023-05-10T07:21:11;7.80;;;3.80;;
17858;SDS011;35426;30.698;104.050;2023-05-10T07:23:50;5.27;;;3.70;;
17858;SDS011;35426;30.698;104.050;2023-05-10T07:26:25;6.30;;;3.50;;
17858;SDS011;35426;30.698;104.050;2023-05-10T07:29:03;6.27;;;3.70;;
17858;SDS011;35426;30.698;104.050;2023-05-10T07:31:42;3.80;;;3.13;;
17858;SDS011;35426;30.698;104.050;2023-05-10T07:34:18;6.27;;;3.30;;
17858;SDS011;35426;30.698;104.050;2023-05-10T07:36:51;6.40;;;3.70;;
17858;SDS011;35426;30.698;104.050;2023-05-10T07:39:29;6.17;;;3.50;;
17858;SDS011;35426;30.698;104.050;2023-05-10T07:42:11;6.07;;;3.60;;
17858;SDS011;35426;30.698;104.050;2023-05-10T07:44:47;5.07;;;3.60;;
17858;SDS011;35426;30.698;104.050;2023-05-10T07:47:22;4.50;;;3.33;;
17858;SDS011;35426;30.698;104.050;2023-05-10T07:50:05;6.87;;;3.43;;
17858;SDS011;35426;30.698;104.050;2023-05-10T07:52:48;10.03;;;3.73;;
17858;SDS011;35426;30.698;104.050;2023-05-10T07:55:33;4.40;;;3.40;;
17858;SDS011;35426;30.698;104.050;2023-05-10T07:58:07;9.13;;;3.50;;
17858;SDS011;35426;30.698;104.050;2023-05-10T08:00:45;10.60;;;3.40;;
17858;SDS011;35426;30.698;104.050;2023-05-10T08:03:22;5.00;;;3.10;;
17858;SDS011;35426;30.698;104.050;2023-05-10T08:06:02;4.70;;;3.20;;
17858;SDS011;35426;30.698;104.050;2023-05-10T08:08:39;5.70;;;3.20;;
17858;SDS011;35426;30.698;104.050;2023-05-10T08:11:14;5.77;;;3.50;;
17858;SDS011;35426;30.698;104.050;2023-05-10T08:13:56;5.60;;;3.50;;
17858;SDS011;35426;30.698;104.050;2023-05-10T08:16:33;9.60;;;3.70;;
17858;SDS011;35426;30.698;104.050;2023-05-10T08:19:08;13.70;;;4.10;;
17858;SDS011;35426;30.698;104.050;2023-05-10T08:21:44;12.27;;;4.20;;
17858;SDS011;35426;30.698;104.050;2023-05-10T08:24:21;5.23;;;3.70;;
17858;SDS011;35426;30.698;104.050;2023-05-10T08:27:01;11.10;;;4.20;;
17858;SDS011;35426;30.698;104.050;2023-05-10T08:29:37;6.87;;;3.90;;
17858;SDS011;35426;30.698;104.050;2023-05-10T08:32:19;6.07;;;4.00;;
17858;SDS011;35426;30.698;104.050;2023-05-10T08:34:54;10.00;;;4.33;;
17858;SDS011;35426;30.698;104.050;2023-05-10T08:37:34;5.90;;;3.87;;
17858;SDS011;35426;30.698;104.050;2023-05-10T08:40:10;9.10;;;4.13;;
17858;SDS011;35426;30.698;104.050;2023-05-10T08:42:50;7.77;;;4.30;;
17858;SDS011;35426;30.698;104.050;2023-05-10T08:45:31;9.67;;;4.20;;
17858;SDS011;35426;30.698;104.050;2023-05-10T08:48:13;8.07;;;4.10;;
17858;SDS011;35426;30.698;104.050;2023-05-10T08:50:48;9.67;;;4.23;;
17858;SDS011;35426;30.698;104.050;2023-05-10T08:53:24;7.53;;;3.97;;
17858;SDS011;35426;30.698;104.050;2023-05-10T08:56:07;10.70;;;4.37;;
17858;SDS011;35426;30.698;104.050;2023-05-10T08:58:44;10.20;;;4.33;;
17858;SDS011;35426;30.698;104.050;2023-05-10T09:01:20;7.30;;;4.23;;
17858;SDS011;35426;30.698;104.050;2023-05-10T09:03:55;6.00;;;3.80;;
17858;SDS011;35426;30.698;104.050;2023-05-10T09:06:36;5.90;;;3.73;;
17858;SDS011;35426;30.698;104.050;2023-05-10T09:09:15;7.47;;;4.03;;
17858;SDS011;35426;30.698;104.050;2023-05-10T09:11:53;7.27;;;3.83;;
17858;SDS011;35426;30.698;104.050;2023-05-10T09:14:28;13.60;;;4.40;;
17858;SDS011;35426;30.698;104.050;2023-05-10T09:17:03;9.67;;;4.10;;
17858;SDS011;35426;30.698;104.050;2023-05-10T09:19:40;11.37;;;4.03;;
17858;SDS011;35426;30.698;104.050;2023-05-10T09:22:20;10.13;;;4.10;;
17858;SDS011;35426;30.698;104.050;2023-05-10T09:25:03;4.90;;;3.63;;
17858;SDS011;35426;30.698;104.050;2023-05-10T09:27:40;6.27;;;3.50;;
17858;SDS011;35426;30.698;104.050;2023-05-10T09:30:22;6.77;;;3.67;;
17858;SDS011;35426;30.698;104.050;2023-05-10T09:32:56;7.93;;;3.67;;
17858;SDS011;35426;30.698;104.050;2023-05-10T09:35:37;8.03;;;3.87;;
17858;SDS011;35426;30.698;104.050;2023-05-10T09:38:13;13.70;;;3.87;;
17858;SDS011;35426;30.698;104.050;2023-05-10T09:40:50;9.40;;;3.73;;
17858;SDS011;35426;30.698;104.050;2023-05-10T09:43:28;6.03;;;3.43;;
17858;SDS011;35426;30.698;104.050;2023-05-10T09:46:13;6.33;;;4.30;;
17858;SDS011;35426;30.698;104.050;2023-05-10T09:48:50;6.43;;;3.37;;
17858;SDS011;35426;30.698;104.050;2023-05-10T09:51:26;5.07;;;3.10;;
17858;SDS011;35426;30.698;104.050;2023-05-10T09:54:11;9.23;;;3.80;;
17858;SDS011;35426;30.698;104.050;2023-05-10T09:56:50;11.77;;;4.73;;
17858;SDS011;35426;30.698;104.050;2023-05-10T09:59:26;8.13;;;4.00;;
17858;SDS011;35426;30.698;104.050;2023-05-10T10:02:02;11.07;;;4.27;;
17858;SDS011;35426;30.698;104.050;2023-05-10T10:04:39;15.10;;;4.90;;
17858;SDS011;35426;30.698;104.050;2023-05-10T10:07:22;9.57;;;4.40;;
17858;SDS011;35426;30.698;104.050;2023-05-10T10:09:57;15.97;;;4.80;;
17858;SDS011;35426;30.698;104.050;2023-05-10T10:12:42;12.07;;;4.33;;
17858;SDS011;35426;30.698;104.050;2023-05-10T10:15:18;16.97;;;5.40;;
17858;SDS011;35426;30.698;104.050;2023-05-10T10:17:55;12.40;;;5.20;;
17858;SDS011;35426;30.698;104.050;2023-05-10T10:20:30;13.53;;;5.53;;
17858;SDS011;35426;30.698;104.050;2023-05-10T10:23:05;12.03;;;4.93;;
17858;SDS011;35426;30.698;104.050;2023-05-10T10:25:44;13.43;;;4.77;;
17858;SDS011;35426;30.698;104.050;2023-05-10T10:28:26;12.63;;;5.10;;
17858;SDS011;35426;30.698;104.050;2023-05-10T10:31:17;12.30;;;5.23;;
17858;SDS011;35426;30.698;104.050;2023-05-10T10:34:09;12.47;;;5.80;;
17858;SDS011;35426;30.698;104.050;2023-05-10T10:36:52;11.03;;;4.87;;
17858;SDS011;35426;30.698;104.050;2023-05-10T10:39:32;11.77;;;4.73;;
17858;SDS011;35426;30.698;104.050;2023-05-10T10:42:12;13.67;;;4.87;;
17858;SDS011;35426;30.698;104.050;2023-05-10T10:45:14;14.53;;;5.43;;
17858;SDS011;35426;30.698;104.050;2023-05-10T10:47:56;13.13;;;4.53;;
17858;SDS011;35426;30.698;104.050;2023-05-10T10:51:00;10.60;;;4.73;;
17858;SDS011;35426;30.698;104.050;2023-05-10T10:53:37;8.77;;;4.00;;
17858;SDS011;35426;30.698;104.050;2023-05-10T10:56:17;17.10;;;6.00;;
17858;SDS011;35426;30.698;104.050;2023-05-10T10:58:58;16.50;;;6.10;;
17858;SDS011;35426;30.698;104.050;2023-05-10T11:01:41;18.63;;;6.30;;
17858;SDS011;35426;30.698;104.050;2023-05-10T11:04:19;15.93;;;6.07;;
17858;SDS011;35426;30.698;104.050;2023-05-10T11:09:54;26.77;;;8.50;;
17858;SDS011;35426;30.698;104.050;2023-05-10T11:12:50;22.37;;;8.67;;
17858;SDS011;35426;30.698;104.050;2023-05-10T11:15:37;22.50;;;10.10;;
17858;SDS011;35426;30.698;104.050;2023-05-10T11:18:18;17.00;;;9.67;;
17858;SDS011;35426;30.698;104.050;2023-05-10T11:20:57;23.70;;;10.53;;
17858;SDS011;35426;30.698;104.050;2023-05-10T11:26:30;25.57;;;12.77;;
17858;SDS011;35426;30.698;104.050;2023-05-10T11:29:07;28.63;;;15.20;;
17858;SDS011;35426;30.698;104.050;2023-05-10T11:31:44;28.77;;;15.90;;
17858;SDS011;35426;30.698;104.050;2023-05-10T11:34:24;31.17;;;17.90;;
17858;SDS011;35426;30.698;104.050;2023-05-10T11:37:00;30.20;;;17.70;;
17858;SDS011;35426;30.698;104.050;2023-05-10T11:39:46;33.00;;;19.13;;
17858;SDS011;35426;30.698;104.050;2023-05-10T11:42:29;34.43;;;19.63;;
17858;SDS011;35426;30.698;104.050;2023-05-10T11:45:04;32.57;;;19.47;;
17858;SDS011;35426;30.698;104.050;2023-05-10T11:47:41;35.90;;;20.50;;
17858;SDS011;35426;30.698;104.050;2023-05-10T11:50:19;30.60;;;20.63;;
17858;SDS011;35426;30.698;104.050;2023-05-10T11:52:56;32.13;;;20.43;;
17858;SDS011;35426;30.698;104.050;2023-05-10T11:55:38;31.43;;;19.70;;
17858;SDS011;35426;30.698;104.050;2023-05-10T11:58:17;32.27;;;20.03;;
17858;SDS011;35426;30.698;104.050;2023-05-10T12:00:56;29.03;;;19.23;;
17858;SDS011;35426;30.698;104.050;2023-05-10T12:03:31;32.70;;;20.70;;
17858;SDS011;35426;30.698;104.050;2023-05-10T12:06:07;31.07;;;20.67;;
17858;SDS011;35426;30.698;104.050;2023-05-10T12:08:44;28.43;;;19.67;;
17858;SDS011;35426;30.698;104.050;2023-05-10T12:11:24;35.70;;;22.97;;
17858;SDS011;35426;30.698;104.050;2023-05-10T12:13:59;28.37;;;20.57;;
17858;SDS011;35426;30.698;104.050;2023-05-10T12:16:40;31.97;;;21.13;;
17858;SDS011;35426;30.698;104.050;2023-05-10T12:19:23;31.07;;;20.90;;
17858;SDS011;35426;30.698;104.050;2023-05-10T12:21:57;32.30;;;21.00;;
17858;SDS011;35426;30.698;104.050;2023-05-10T12:24:42;31.83;;;20.07;;
17858;SDS011;35426;30.698;104.050;2023-05-10T12:27:26;30.63;;;20.47;;
17858;SDS011;35426;30.698;104.050;2023-05-10T12:30:08;31.83;;;21.63;;
17858;SDS011;35426;30.698;104.050;2023-05-10T12:32:45;35.97;;;22.60;;
17858;SDS011;35426;30.698;104.050;2023-05-10T12:35:20;34.57;;;21.60;;
17858;SDS011;35426;30.698;104.050;2023-05-10T12:37:53;37.13;;;23.33;;
17858;SDS011;35426;30.698;104.050;2023-05-10T12:40:28;40.33;;;21.10;;
17858;SDS011;35426;30.698;104.050;2023-05-10T12:43:05;32.73;;;21.23;;
17858;SDS011;35426;30.698;104.050;2023-05-10T12:45:40;34.10;;;21.70;;
17858;SDS011;35426;30.698;104.050;2023-05-10T12:48:18;33.67;;;19.97;;
17858;SDS011;35426;30.698;104.050;2023-05-10T12:50:56;25.93;;;17.30;;
17858;SDS011;35426;30.698;104.050;2023-05-10T12:53:31;25.80;;;16.83;;
17858;SDS011;35426;30.698;104.050;2023-05-10T12:56:08;31.43;;;17.93;;
17858;SDS011;35426;30.698;104.050;2023-05-10T12:58:49;28.90;;;17.87;;
17858;SDS011;35426;30.698;104.050;2023-05-10T13:01:24;29.57;;;17.87;;
17858;SDS011;35426;30.698;104.050;2023-05-10T13:04:02;33.30;;;18.97;;
17858;SDS011;35426;30.698;104.050;2023-05-10T13:06:37;25.83;;;16.27;;
17858;SDS011;35426;30.698;104.050;2023-05-10T13:09:22;30.63;;;16.70;;
17858;SDS011;35426;30.698;104.050;2023-05-10T13:11:56;26.50;;;17.00;;
17858;SDS011;35426;30.698;104.050;2023-05-10T13:14:33;28.60;;;16.40;;
17858;SDS011;35426;30.698;104.050;2023-05-10T13:17:10;26.50;;;16.63;;
17858;SDS011;35426;30.698;104.050;2023-05-10T13:19:47;25.97;;;16.43;;
17858;SDS011;35426;30.698;104.050;2023-05-10T13:22:26;27.70;;;16.73;;
17858;SDS011;35426;30.698;104.050;2023-05-10T13:25:11;28.70;;;16.87;;
17858;SDS011;35426;30.698;104.050;2023-05-10T13:27:47;25.37;;;17.03;;
17858;SDS011;35426;30.698;104.050;2023-05-10T13:30:29;26.27;;;16.67;;
17858;SDS011;35426;30.698;104.050;2023-05-10T13:33:03;30.93;;;19.43;;
17858;SDS011;35426;30.698;104.050;2023-05-10T13:35:41;32.17;;;19.70;;
17858;SDS011;35426;30.698;104.050;2023-05-10T13:38:17;28.40;;;19.03;;
17858;SDS011;35426;30.698;104.050;2023-05-10T13:40:56;26.33;;;18.43;;
17858;SDS011;35426;30.698;104.050;2023-05-10T13:43:32;30.87;;;19.40;;
17858;SDS011;35426;30.698;104.050;2023-05-10T13:46:09;27.77;;;19.13;;
17858;SDS011;35426;30.698;104.050;2023-05-10T13:48:49;24.00;;;16.43;;
17858;SDS011;35426;30.698;104.050;2023-05-10T13:51:27;28.50;;;17.43;;
17858;SDS011;35426;30.698;104.050;2023-05-10T13:54:06;23.10;;;16.57;;
17858;SDS011;35426;30.698;104.050;2023-05-10T13:56:42;29.90;;;15.53;;
17858;SDS011;35426;30.698;104.050;2023-05-10T13:59:24;25.73;;;15.13;;
17858;SDS011;35426;30.698;104.050;2023-05-10T14:02:04;27.13;;;15.47;;
17858;SDS011;35426;30.698;104.050;2023-05-10T14:04:42;24.63;;;15.83;;
17858;SDS011;35426;30.698;104.050;2023-05-10T14:07:19;21.73;;;14.80;;
17858;SDS011;35426;30.698;104.050;2023-05-10T14:09:56;27.00;;;15.87;;
17858;SDS011;35426;30.698;104.050;2023-05-10T14:12:37;20.73;;;14.70;;
17858;SDS011;35426;30.698;104.050;2023-05-10T14:15:10;27.00;;;14.97;;
17858;SDS011;35426;30.698;104.050;2023-05-10T14:17:49;26.63;;;15.70;;
17858;SDS011;35426;30.698;104.050;2023-05-10T14:20:24;25.63;;;17.30;;
17858;SDS011;35426;30.698;104.050;2023-05-10T14:23:03;27.50;;;16.13;;
17858;SDS011;35426;30.698;104.050;2023-05-10T14:25:40;24.33;;;15.90;;
17858;SDS011;35426;30.698;104.050;2023-05-10T14:28:16;22.27;;;15.83;;
17858;SDS011;35426;30.698;104.050;2023-05-10T14:30:59;22.27;;;16.57;;
17858;SDS011;35426;30.698;104.050;2023-05-10T14:33:34;27.60;;;15.80;;
17858;SDS011;35426;30.698;104.050;2023-05-10T14:36:09;25.60;;;16.50;;
17858;SDS011;35426;30.698;104.050;2023-05-10T14:38:49;28.03;;;17.63;;
17858;SDS011;35426;30.698;104.050;2023-05-10T14:41:39;28.77;;;17.17;;
17858;SDS011;35426;30.698;104.050;2023-05-10T14:44:13;27.57;;;17.53;;
17858;SDS011;35426;30.698;104.050;2023-05-10T14:46:48;32.80;;;19.03;;
17858;SDS011;35426;30.698;104.050;2023-05-10T14:49:29;28.27;;;17.70;;
17858;SDS011;35426;30.698;104.050;2023-05-10T14:52:09;27.90;;;18.80;;
17858;SDS011;35426;30.698;104.050;2023-05-10T14:54:45;27.50;;;18.53;;
17858;SDS011;35426;30.698;104.050;2023-05-10T14:57:19;27.77;;;19.07;;
17858;SDS011;35426;30.698;104.050;2023-05-10T14:59:55;27.97;;;19.00;;
17858;SDS011;35426;30.698;104.050;2023-05-10T15:02:30;30.33;;;19.93;;
17858;SDS011;35426;30.698;104.050;2023-05-10T15:05:18;29.77;;;20.57;;
17858;SDS011;35426;30.698;104.050;2023-05-10T15:07:53;30.87;;;20.67;;
17858;SDS011;35426;30.698;104.050;2023-05-10T15:10:34;30.17;;;19.20;;
17858;SDS011;35426;30.698;104.050;2023-05-10T15:13:21;31.23;;;21.33;;
17858;SDS011;35426;30.698;104.050;2023-05-10T15:15:59;31.50;;;20.63;;
17858;SDS011;35426;30.698;104.050;2023-05-10T15:18:39;31.40;;;20.23;;
17858;SDS011;35426;30.698;104.050;2023-05-10T15:21:17;29.60;;;21.17;;
17858;SDS011;35426;30.698;104.050;2023-05-10T15:24:08;31.63;;;20.63;;
17858;SDS011;35426;30.698;104.050;2023-05-10T15:26:43;29.93;;;20.80;;
17858;SDS011;35426;30.698;104.050;2023-05-10T15:29:19;29.13;;;20.90;;
17858;SDS011;35426;30.698;104.050;2023-05-10T15:31:55;27.27;;;20.23;;